Edwards, MS (39066)

4:15 PM CDT on March 27, 2015 (GMT -0500)
clear creek golf course | | Change Station
CLOSE
Current Station
Personal Weather Station
Location: Vicksburg, MS
Elevation: 210 ft
Nearby Weather Stations
Active Advisory: Flood Warning

Elev 210 ft 32.37 °N, 90.72 °W | Updated 4 minutes ago

Clear
Clear
59.5 °F
Feels Like 59.5 °F
N
4.2
Wind Variable Wind from WNW

Today
High -- | Low -- °F
--% Chance of Precip.
Yesterday
High -- | Low -- °F
Precip. -- in
6:57 AM 7:18 PM
First Quarter, 56% visible
Pressure 30.05 in
Visibility 10.0 miles
Clouds Mostly Cloudy 6000 ft
Mostly Cloudy 7500 ft
Dew Point 38 °F
Humidity 44%
Rainfall 0.00 in
Snow Depth Not available.
UV 3 out of 12
Pollen 10.00 out of 12
Air Quality Not available.
Flu Activity Not available.
METAR KJVW 272055Z AUTO 32009KT 10SM BKN060 BKN075 15/13 A3005 RMK AO2

More Conditions Fewer Conditions

Pressure 30.05 in
Visibility 10.0 miles
Clouds Mostly Cloudy 6000 ft
Mostly Cloudy 7500 ft
Dew Point 38 °F
Humidity 44%
Rainfall 0.00 in
Snow Depth Not available.
UV 3 out of 12
Pollen 10.00 out of 12
Air Quality Not available.
Flu Activity Not available.
METAR KJVW 272055Z AUTO 32009KT 10SM BKN060 BKN075 15/13 A3005 RMK AO2

More Conditions Fewer Conditions

10-Day Weather Forecast

Almanac

Astronomy

Mar. 27, 2015 Rise Set
Actual Time
Civil Twilight
Nautical Twilight
Astronomical Twilight
Moon
Length of Visible Light
Length of Day
Tomorrow will be .
, % of the Moon is Illuminated

Today's Extremes

State Highs State Lows

Community

WunderPhotos

Upload Photos

1,808,826 photos uploaded!

WunderBlogs® & News

Nearby

Air Quality

  Air Quality AQ Index Pollutant
Not available.

Snow Depth

Station Depth Elevation

Earthquake Activity

City Distance Mag. Time & Date
Minimum magnitude displayed is 2.5.

Coastal Water Temperatures

Place Temperature

Stations

Nearby Weather Stations

Station Location Temp. Windchill Dew Point Humidity Wind Precip. Elev Updated Type
                   
Flood Warning
Statement as of 10:14 AM CDT on March 27, 2015


The Flood Warning continues for
the Big Black River near Bovina
* until Monday afternoon.
* At 9:15 am Friday the stage was 28.9 feet.
* Minor flooding is occurring and minor flooding is forecast.
* Flood stage is 28.0 feet.
* Forecast... the river will continue falling and will fall below
flood stage by early Monday morning.
* Impact... at 28.0 feet... low-lying agricultural land near the river
begins to flood.


              Flood observed forecast 7 am crest
location stg stg day time Sat sun Mon crest time date

Lower Big Black River
Bovina 28 28.9 Fri 09 am 28.4 28.1 27.9 falling




Lat... Lon 3217 9093 3224 9078 3256 9064 3245 9052
      3218 9065 3204 9102